La Chambre, France

12:10 PM CET on February 09, 2016 (GMT +0100)
Saint-Jean de Maurienne | | Change Station
CLOSE
Current Station
Personal Weather Station
Location: Saint-Jean De Maurienne, SAVOIE
Elevation: 1808 ft
Nearby Weather Stations

Elev 1808 ft 45.28 °N, 6.35 °E | Updated 14 minutes ago

Fog
Fog
49.7 °F
Feels Like 50 °F
N
0.0
Wind Variable Wind from North
Gusts 0.0 mph

Today
High -- | Low -- °F
--% Chance of Precip.
Yesterday
High -- | Low -- °F
Precip. -- in
Pressure 29.86 in
Visibility 0.1 miles
Clouds
Windchill 50 °F
Dew Point 37 °F
Humidity 63%
Rainfall 0.00 in
Snow Depth Not available.
7:46 AM 5:52 PM
New Moon, 1% visible
METAR LIMK 091055Z 02006KT 0100 FG VV001 03/03 Q1011 RMK VAL INVIS VIS MIN 0100
Pressure 29.86 in
Visibility 0.1 miles
Clouds
Windchill 50 °F
Dew Point 37 °F
Humidity 63%
Rainfall 0.00 in
Snow Depth Not available.
7:46 AM 5:52 PM
New Moon, 1% visible
METAR LIMK 091055Z 02006KT 0100 FG VV001 03/03 Q1011 RMK VAL INVIS VIS MIN 0100

10-Day Weather Forecast

Heavy Snow conditions possible.

Almanac

Astronomy

Feb. 09, 2016 Rise Set
Actual Time
Civil Twilight
Nautical Twilight
Astronomical Twilight
Moon
Length of Visible Light
Length of Day
Tomorrow will be .
, % of the Moon is Illuminated

Today's Extremes

Country Highs Country Lows

Community

WunderPhotos

Upload Photos

1,891,565 photos uploaded!

WunderBlog® & News

Nearby

Air Quality

  Air Quality AQ Index Pollutant
Not available.

Snow Depth

Station Depth Elevation

Earthquake Activity

City Distance Mag. Time & Date
Minimum magnitude displayed is 2.5.

Coastal Water Temperatures

Place Temperature

Stations

Nearby Weather Stations

Station Location Temp. Windchill Dew Point Humidity Wind Precip. Elev Updated Type